createdAt,value
2019-05-26T00:01:24.890Z,45.01
2019-05-26T00:03:53.385Z,45.14
2019-05-26T00:06:21.881Z,45.46
2019-05-26T00:08:50.705Z,45.56
2019-05-26T00:11:19.455Z,45.79
2019-05-26T00:13:48.182Z,46.11
2019-05-26T00:16:16.688Z,46.39
2019-05-26T00:18:45.213Z,46.43
2019-05-26T00:21:13.697Z,46.35
2019-05-26T00:23:42.309Z,46.52
2019-05-26T00:26:10.846Z,46.72
2019-05-26T00:28:39.348Z,46.87
2019-05-26T00:31:07.841Z,46.96
2019-05-26T00:33:36.352Z,47.00
2019-05-26T00:36:05.402Z,47.18
2019-05-26T00:38:34.163Z,47.40
2019-05-26T00:41:02.761Z,47.47
2019-05-26T00:43:31.209Z,47.69
2019-05-26T00:46:00.000Z,47.60
2019-05-26T00:48:28.832Z,47.62
2019-05-26T00:50:57.336Z,47.86
2019-05-26T00:53:26.068Z,48.35
2019-05-26T00:55:54.809Z,49.21
2019-05-26T00:58:23.317Z,49.80
2019-05-26T01:00:51.815Z,50.38
2019-05-26T01:03:20.546Z,50.63
2019-05-26T01:05:49.050Z,50.58
2019-05-26T01:08:17.787Z,50.68
2019-05-26T01:10:46.309Z,51.38
2019-05-26T01:13:15.086Z,51.63
2019-05-26T01:15:43.587Z,51.78
2019-05-26T01:18:12.990Z,52.19
2019-05-26T01:20:41.468Z,52.33
2019-05-26T01:23:09.955Z,52.31
2019-05-26T01:25:38.538Z,52.19
2019-05-26T01:28:07.062Z,52.39
2019-05-26T01:30:37.082Z,52.51
2019-05-26T01:33:05.677Z,52.43
2019-05-26T01:35:34.460Z,52.52
2019-05-26T01:38:02.985Z,52.63
2019-05-26T01:40:39.579Z,53.30
2019-05-26T01:43:08.327Z,53.48
2019-05-26T01:45:36.837Z,53.56
2019-05-26T01:48:05.994Z,53.90
2019-05-26T01:50:34.715Z,54.06
2019-05-26T01:53:03.602Z,54.28
2019-05-26T01:55:32.088Z,54.62
2019-05-26T01:58:00.690Z,54.49
2019-05-26T02:00:29.178Z,54.04
2019-05-26T02:02:57.771Z,53.67
2019-05-26T02:05:26.546Z,53.37
2019-05-26T02:07:55.061Z,53.42
2019-05-26T02:10:23.530Z,53.53
2019-05-26T02:12:52.056Z,53.59
2019-05-26T02:15:20.617Z,53.74
2019-05-26T02:17:49.571Z,53.58
2019-05-26T02:20:18.167Z,53.53
2019-05-26T02:22:46.669Z,53.62
2019-05-26T02:25:15.793Z,53.55
2019-05-26T02:27:44.918Z,53.65
2019-05-26T02:30:13.430Z,53.63
2019-05-26T02:32:41.959Z,53.98
2019-05-26T02:35:11.513Z,54.01
2019-05-26T02:37:40.015Z,54.01
2019-05-26T02:40:08.672Z,53.94
2019-05-26T02:42:37.174Z,54.11
2019-05-26T02:45:07.360Z,54.08
2019-05-26T02:47:35.852Z,54.18
2019-05-26T02:50:04.920Z,54.18
2019-05-26T02:52:33.415Z,54.39
2019-05-26T02:55:02.246Z,54.38
2019-05-26T02:57:30.760Z,54.40
2019-05-26T02:59:59.320Z,54.48
2019-05-26T03:02:28.179Z,54.57
2019-05-26T03:04:56.684Z,54.67
2019-05-26T03:07:26.134Z,54.71
2019-05-26T03:09:55.365Z,54.82
2019-05-26T03:12:23.875Z,54.90
2019-05-26T03:14:53.199Z,55.08
2019-05-26T03:17:21.959Z,55.14
2019-05-26T03:19:50.810Z,55.17
2019-05-26T03:22:19.982Z,55.21
2019-05-26T03:24:50.654Z,55.21
2019-05-26T03:27:19.179Z,55.24
2019-05-26T03:29:47.784Z,55.33
2019-05-26T03:32:16.427Z,55.67
2019-05-26T03:34:44.942Z,55.64
2019-05-26T03:37:13.504Z,55.65
2019-05-26T03:39:45.261Z,55.73
2019-05-26T03:42:12.458Z,55.80
2019-05-26T03:44:41.006Z,55.72
2019-05-26T03:47:09.510Z,55.69
2019-05-26T03:49:38.030Z,55.87
2019-05-26T03:52:06.538Z,55.80
2019-05-26T03:54:35.129Z,55.78
2019-05-26T03:57:03.620Z,55.76
2019-05-26T03:59:32.212Z,55.58
2019-05-26T04:02:00.771Z,55.43
2019-05-26T04:04:29.371Z,54.99
2019-05-26T04:06:57.867Z,54.92
2019-05-26T04:09:26.629Z,54.63
2019-05-26T04:11:55.227Z,54.33
2019-05-26T04:14:23.738Z,53.93
2019-05-26T04:16:52.313Z,53.63
2019-05-26T04:19:21.109Z,53.35
2019-05-26T04:21:49.674Z,53.01
2019-05-26T04:24:18.261Z,52.56
2019-05-26T04:26:46.820Z,52.94
2019-05-26T04:29:15.400Z,52.89
2019-05-26T04:31:43.998Z,52.29
2019-05-26T04:34:12.491Z,51.72
2019-05-26T04:36:41.051Z,52.78
2019-05-26T04:39:09.539Z,53.23
2019-05-26T04:41:38.052Z,52.21
2019-05-26T04:44:06.940Z,50.93
2019-05-26T04:46:35.421Z,49.84
2019-05-26T04:49:03.950Z,49.05
2019-05-26T04:51:32.454Z,47.74
2019-05-26T04:54:20.831Z,47.15
2019-05-26T04:56:49.379Z,47.24
2019-05-26T04:59:18.058Z,43.53
2019-05-26T05:01:46.574Z,37.26
2019-05-26T05:04:15.079Z,33.57
2019-05-26T05:06:43.624Z,32.28
2019-05-26T05:09:12.186Z,31.01
2019-05-26T05:11:41.224Z,31.27
2019-05-26T05:14:09.725Z,32.08
2019-05-26T05:16:38.261Z,34.97
2019-05-26T05:19:06.872Z,36.69
2019-05-26T05:21:35.517Z,36.48
2019-05-26T05:24:04.019Z,37.38
2019-05-26T05:26:32.526Z,38.53
2019-05-26T05:29:01.022Z,38.15
2019-05-26T05:31:29.905Z,38.46
2019-05-26T05:33:58.423Z,37.70
2019-05-26T05:36:26.924Z,35.96
2019-05-26T05:38:55.731Z,30.79
2019-05-26T05:41:24.804Z,26.14
2019-05-26T05:43:53.305Z,23.21
2019-05-26T05:46:21.797Z,21.41
2019-05-26T05:48:50.315Z,20.70
2019-05-26T05:51:18.795Z,18.72
2019-05-26T05:53:47.280Z,17.46
2019-05-26T05:56:15.805Z,17.52
2019-05-26T05:58:44.784Z,17.01
2019-05-26T06:01:13.382Z,15.47
2019-05-26T06:03:42.122Z,15.33
2019-05-26T06:06:10.921Z,15.38
2019-05-26T06:08:39.425Z,15.07
2019-05-26T06:11:16.600Z,14.48
2019-05-26T06:13:38.125Z,13.70
2019-05-26T06:16:06.609Z,12.63
2019-05-26T06:18:35.136Z,12.70
2019-05-26T06:21:03.676Z,11.48
2019-05-26T06:23:32.215Z,11.14
2019-05-26T06:26:00.760Z,10.86
2019-05-26T06:28:29.263Z,10.86
2019-05-26T06:30:57.811Z,9.51
2019-05-26T06:33:26.901Z,8.12
2019-05-26T06:35:55.408Z,7.50
2019-05-26T06:38:23.976Z,9.76
2019-05-26T06:40:52.840Z,9.51
2019-05-26T06:43:21.343Z,9.28
2019-05-26T06:45:49.863Z,9.17
2019-05-26T06:48:18.402Z,10.07
2019-05-26T06:50:46.909Z,10.75
2019-05-26T06:53:15.420Z,11.64
2019-05-26T06:55:44.046Z,14.92
2019-05-26T06:58:12.714Z,22.01
2019-05-26T07:00:41.704Z,24.88
2019-05-26T07:03:10.509Z,25.24
2019-05-26T07:05:39.176Z,25.32
2019-05-26T07:08:07.852Z,26.75
2019-05-26T07:10:36.779Z,26.33
2019-05-26T07:13:05.421Z,27.00
2019-05-26T07:15:34.107Z,30.38
2019-05-26T07:18:03.125Z,30.23
2019-05-26T07:20:31.825Z,29.25
2019-05-26T07:23:00.668Z,29.79
2019-05-26T07:25:29.300Z,31.05
2019-05-26T07:27:57.902Z,30.23
2019-05-26T07:30:26.722Z,28.70
2019-05-26T07:32:55.213Z,29.73
2019-05-26T07:35:23.822Z,35.67
2019-05-26T07:37:52.436Z,40.41
2019-05-26T07:40:21.044Z,38.29
2019-05-26T07:42:49.647Z,35.29
2019-05-26T07:45:18.381Z,33.29
2019-05-26T07:47:47.025Z,32.98
2019-05-26T07:50:15.636Z,31.78
2019-05-26T07:52:44.610Z,33.28
2019-05-26T07:55:13.320Z,35.39
2019-05-26T07:57:42.022Z,33.42
2019-05-26T08:00:10.692Z,31.61
2019-05-26T08:02:39.308Z,29.98
2019-05-26T08:05:10.561Z,30.95
2019-05-26T08:07:39.095Z,31.29
2019-05-26T08:10:07.790Z,29.96
2019-05-26T08:12:36.486Z,28.38
2019-05-26T08:15:05.240Z,29.35
2019-05-26T08:17:33.762Z,29.30
2019-05-26T08:20:02.292Z,29.42
2019-05-26T08:22:30.782Z,28.89
2019-05-26T08:24:59.271Z,29.55
2019-05-26T08:27:27.760Z,29.52
2019-05-26T08:29:56.550Z,28.17
2019-05-26T08:32:25.039Z,27.89
2019-05-26T08:34:53.561Z,27.25
2019-05-26T08:37:22.063Z,26.42
2019-05-26T08:39:50.554Z,27.05
2019-05-26T08:42:27.249Z,27.83
2019-05-26T08:44:49.285Z,29.26
2019-05-26T08:47:17.782Z,30.69
2019-05-26T08:49:46.280Z,32.13
2019-05-26T08:52:14.804Z,27.51
2019-05-26T08:54:43.291Z,26.79
2019-05-26T08:57:12.134Z,29.88
2019-05-26T08:59:40.640Z,28.65
2019-05-26T09:02:09.149Z,25.70
2019-05-26T09:04:37.640Z,25.74
2019-05-26T09:07:06.145Z,24.69
2019-05-26T09:09:34.842Z,23.54
2019-05-26T09:12:03.417Z,23.10
2019-05-26T09:14:32.029Z,21.97
2019-05-26T09:17:00.565Z,23.04
2019-05-26T09:19:29.049Z,22.42
2019-05-26T09:21:57.552Z,20.77
2019-05-26T09:24:26.050Z,20.49
2019-05-26T09:26:54.581Z,19.81
2019-05-26T09:29:23.115Z,19.91
2019-05-26T09:31:51.581Z,19.51
2019-05-26T09:34:20.114Z,19.60
2019-05-26T09:36:48.632Z,19.51
2019-05-26T09:39:17.145Z,18.72
2019-05-26T09:41:45.649Z,18.62
2019-05-26T09:44:14.404Z,18.42
2019-05-26T09:46:42.916Z,18.12
2019-05-26T09:49:11.435Z,18.98
2019-05-26T09:51:40.072Z,20.15
2019-05-26T09:54:08.663Z,19.95
2019-05-26T09:56:37.256Z,19.51
2019-05-26T09:59:05.779Z,18.39
2019-05-26T10:01:34.287Z,17.39
2019-05-26T10:04:02.861Z,17.41
2019-05-26T10:06:31.356Z,16.78
2019-05-26T10:08:59.869Z,15.17
2019-05-26T10:11:28.383Z,14.12
2019-05-26T10:13:57.012Z,13.65
2019-05-26T10:16:25.520Z,12.52
2019-05-26T10:18:54.093Z,13.15
2019-05-26T10:21:22.593Z,13.32
2019-05-26T10:23:53.158Z,13.21
2019-05-26T10:26:21.717Z,13.42
2019-05-26T10:28:50.261Z,12.84
2019-05-26T10:31:18.749Z,13.68
2019-05-26T10:33:47.271Z,15.45
2019-05-26T10:36:15.769Z,15.13
2019-05-26T10:38:44.576Z,14.88
2019-05-26T10:41:13.153Z,14.73
2019-05-26T10:43:47.437Z,15.10
2019-05-26T10:46:11.945Z,14.53
2019-05-26T10:48:40.458Z,16.45
2019-05-26T10:51:09.866Z,16.61
2019-05-26T10:53:38.408Z,16.63
2019-05-26T10:56:06.985Z,17.52
2019-05-26T10:58:35.729Z,17.59
2019-05-26T11:01:04.222Z,17.33
2019-05-26T11:03:32.755Z,17.96
2019-05-26T11:06:01.493Z,19.76
2019-05-26T11:08:30.254Z,18.45
2019-05-26T11:10:58.828Z,19.17
2019-05-26T11:13:27.341Z,17.87
2019-05-26T11:15:55.839Z,18.52
2019-05-26T11:18:24.371Z,18.51
2019-05-26T11:20:54.669Z,17.44
2019-05-26T11:23:23.280Z,18.46
2019-05-26T11:25:51.785Z,18.61
2019-05-26T11:28:20.352Z,17.19
2019-05-26T11:30:48.837Z,17.11
2019-05-26T11:33:17.417Z,16.96
2019-05-26T11:35:45.931Z,17.47
2019-05-26T11:38:14.421Z,17.52
2019-05-26T11:40:42.949Z,17.53
2019-05-26T11:43:16.893Z,16.75
2019-05-26T11:45:41.725Z,16.52
2019-05-26T11:48:10.221Z,16.28
2019-05-26T11:50:38.705Z,15.54
2019-05-26T11:53:07.203Z,17.36
2019-05-26T11:55:35.784Z,17.17
2019-05-26T11:58:04.281Z,17.15
2019-05-26T12:00:32.774Z,16.87
2019-05-26T12:03:01.283Z,16.67
2019-05-26T12:05:29.772Z,15.98
2019-05-26T12:07:58.275Z,15.14
2019-05-26T12:10:26.867Z,15.91
2019-05-26T12:12:55.646Z,17.18
2019-05-26T12:15:24.158Z,16.49
2019-05-26T12:17:52.670Z,16.21
2019-05-26T12:20:21.178Z,16.77
2019-05-26T12:22:49.708Z,17.47
2019-05-26T12:25:18.211Z,16.41
2019-05-26T12:27:46.776Z,16.34
2019-05-26T12:30:15.443Z,15.93
2019-05-26T12:32:43.989Z,14.95
2019-05-26T12:35:12.481Z,15.23
2019-05-26T12:37:40.996Z,14.25
2019-05-26T12:40:09.601Z,14.73
2019-05-26T12:42:38.077Z,17.20
2019-05-26T12:45:06.614Z,16.75
2019-05-26T12:47:35.466Z,16.08
2019-05-26T12:50:04.493Z,15.55
2019-05-26T12:52:32.999Z,17.45
2019-05-26T12:55:01.491Z,16.57
2019-05-26T12:57:30.074Z,16.33
2019-05-26T12:59:58.581Z,16.10
2019-05-26T13:02:27.070Z,16.11
2019-05-26T13:04:55.623Z,15.31
2019-05-26T13:07:24.149Z,15.82
2019-05-26T13:09:52.666Z,15.53
2019-05-26T13:12:21.228Z,14.24
2019-05-26T13:15:04.961Z,15.49
2019-05-26T13:17:20.053Z,15.57
2019-05-26T13:19:48.839Z,15.14
2019-05-26T13:22:17.326Z,15.40
2019-05-26T13:24:45.872Z,16.25
2019-05-26T13:27:14.344Z,16.77
2019-05-26T13:29:42.967Z,15.66
2019-05-26T13:32:11.518Z,16.25
2019-05-26T13:34:40.087Z,16.78
2019-05-26T13:37:08.601Z,16.85
2019-05-26T13:39:37.124Z,16.10
2019-05-26T13:42:05.630Z,16.04
2019-05-26T13:44:34.117Z,15.50
2019-05-26T13:47:02.643Z,14.99
2019-05-26T13:49:31.128Z,15.09
2019-05-26T13:51:59.668Z,14.92
2019-05-26T13:54:28.181Z,15.32
2019-05-26T13:56:56.745Z,14.29
2019-05-26T13:59:25.265Z,15.96
2019-05-26T14:01:53.810Z,14.64
2019-05-26T14:04:22.629Z,15.54
2019-05-26T14:06:51.124Z,13.65
2019-05-26T14:09:19.629Z,13.83
2019-05-26T14:11:48.137Z,14.12
2019-05-26T14:14:16.666Z,14.33
2019-05-26T14:16:45.883Z,14.35
2019-05-26T14:19:14.472Z,14.33
2019-05-26T14:21:43.354Z,14.96
2019-05-26T14:24:11.838Z,14.08
2019-05-26T14:26:40.389Z,13.56
2019-05-26T14:29:08.877Z,14.65
2019-05-26T14:31:37.402Z,15.67
2019-05-26T14:34:05.921Z,15.14
2019-05-26T14:36:34.432Z,16.10
2019-05-26T14:39:02.937Z,15.29
2019-05-26T14:41:31.454Z,15.82
2019-05-26T14:44:00.032Z,17.08
2019-05-26T14:46:28.546Z,17.21
2019-05-26T14:48:57.068Z,17.93
2019-05-26T14:51:25.575Z,18.10
2019-05-26T14:53:54.131Z,18.33
2019-05-26T14:56:22.626Z,18.66
2019-05-26T14:58:51.142Z,18.21
2019-05-26T15:01:19.640Z,17.54
2019-05-26T15:03:48.158Z,17.94
2019-05-26T15:06:16.682Z,17.74
2019-05-26T15:08:45.181Z,18.34
2019-05-26T15:11:13.671Z,18.27
2019-05-26T15:13:42.406Z,18.37
2019-05-26T15:16:10.923Z,18.81
2019-05-26T15:18:39.428Z,18.48
2019-05-26T15:21:08.077Z,18.67
2019-05-26T15:23:36.672Z,19.37
2019-05-26T15:26:05.653Z,19.37
2019-05-26T15:28:34.252Z,19.95
2019-05-26T15:31:02.766Z,19.87
2019-05-26T15:33:31.355Z,19.25
2019-05-26T15:35:59.916Z,19.20
2019-05-26T15:38:41.933Z,18.18
2019-05-26T15:40:58.617Z,17.63
2019-05-26T15:43:27.114Z,17.92
2019-05-26T15:45:55.611Z,19.06
2019-05-26T15:48:24.152Z,19.73
2019-05-26T15:50:52.668Z,19.41
2019-05-26T15:53:21.273Z,20.15
2019-05-26T15:55:49.758Z,20.35
2019-05-26T15:58:18.526Z,20.44
2019-05-26T16:00:47.151Z,21.00
2019-05-26T16:03:15.616Z,21.34
2019-05-26T16:05:44.141Z,21.04
2019-05-26T16:08:12.637Z,20.91
2019-05-26T16:10:41.127Z,20.78
2019-05-26T16:13:09.620Z,21.18
2019-05-26T16:15:38.106Z,21.59
2019-05-26T16:18:06.886Z,21.35
2019-05-26T16:20:35.365Z,21.16
2019-05-26T16:23:03.921Z,20.89
2019-05-26T16:25:32.439Z,21.16
2019-05-26T16:28:00.923Z,20.85
2019-05-26T16:30:29.507Z,20.70
2019-05-26T16:32:58.167Z,20.05
2019-05-26T16:35:26.762Z,19.51
2019-05-26T16:37:55.258Z,20.25
2019-05-26T16:40:23.788Z,20.41
2019-05-26T16:42:52.275Z,20.72
2019-05-26T16:45:20.956Z,21.35
2019-05-26T16:47:49.832Z,21.60
2019-05-26T16:50:18.686Z,21.69
2019-05-26T16:52:47.727Z,22.20
2019-05-26T16:55:16.317Z,21.99
2019-05-26T16:57:44.860Z,22.80
2019-05-26T17:00:13.435Z,23.22
2019-05-26T17:02:41.912Z,23.57
2019-05-26T17:05:10.559Z,23.58
2019-05-26T17:07:39.088Z,24.01
2019-05-26T17:10:07.651Z,24.32
2019-05-26T17:12:36.155Z,24.72
2019-05-26T17:15:05.148Z,24.75
2019-05-26T17:17:33.761Z,24.98
2019-05-26T17:20:02.329Z,24.96
2019-05-26T17:22:31.088Z,24.96
2019-05-26T17:25:00.089Z,25.28
2019-05-26T17:27:28.924Z,25.27
2019-05-26T17:29:57.491Z,25.01
2019-05-26T17:32:26.005Z,25.50
2019-05-26T17:34:54.566Z,25.10
2019-05-26T17:37:23.349Z,25.35
2019-05-26T17:39:52.026Z,25.18
2019-05-26T17:42:20.618Z,25.38
2019-05-26T17:44:49.152Z,25.58
2019-05-26T17:47:29.885Z,25.94
2019-05-26T17:49:48.340Z,26.66
2019-05-26T17:52:16.963Z,27.43
2019-05-26T17:54:45.500Z,27.87
2019-05-26T17:57:14.004Z,27.97
2019-05-26T17:59:42.560Z,28.11
2019-05-26T18:02:11.138Z,27.96
2019-05-26T18:04:39.679Z,28.26
2019-05-26T18:07:08.172Z,28.64
2019-05-26T18:09:44.351Z,28.67
2019-05-26T18:12:06.978Z,28.78
2019-05-26T18:14:35.575Z,28.63
2019-05-26T18:17:04.290Z,28.54
2019-05-26T18:19:32.788Z,28.74
2019-05-26T18:22:01.456Z,29.20
2019-05-26T18:24:30.078Z,29.05
2019-05-26T18:26:58.712Z,29.17
2019-05-26T18:29:27.429Z,29.30
2019-05-26T18:31:56.545Z,29.12
2019-05-26T18:34:25.353Z,29.25
2019-05-26T18:36:53.953Z,29.08
2019-05-26T18:39:22.574Z,29.48
2019-05-26T18:41:51.182Z,29.62
2019-05-26T18:44:19.856Z,29.63
2019-05-26T18:46:48.535Z,29.85
2019-05-26T18:49:17.646Z,30.29
2019-05-26T18:51:46.317Z,30.10
2019-05-26T18:54:14.914Z,30.37
2019-05-26T18:56:43.585Z,30.68
2019-05-26T18:59:12.407Z,30.51
2019-05-26T19:01:41.060Z,30.68
2019-05-26T19:04:09.836Z,30.82
2019-05-26T19:06:38.443Z,30.79
2019-05-26T19:09:08.637Z,31.02
2019-05-26T19:11:37.367Z,31.45
2019-05-26T19:14:06.240Z,31.26
2019-05-26T19:16:34.892Z,31.07
2019-05-26T19:19:03.741Z,31.19
2019-05-26T19:21:32.369Z,31.45
2019-05-26T19:24:00.937Z,31.72
2019-05-26T19:26:29.494Z,31.52
2019-05-26T19:28:58.160Z,31.57
2019-05-26T19:31:26.979Z,31.38
2019-05-26T19:33:55.861Z,31.49
2019-05-26T19:36:24.501Z,31.37
2019-05-26T19:38:53.195Z,31.30
2019-05-26T19:41:21.893Z,31.46
2019-05-26T19:43:50.584Z,31.56
2019-05-26T19:46:19.231Z,31.73
2019-05-26T19:48:48.068Z,31.80
2019-05-26T19:51:16.699Z,32.39
2019-05-26T19:53:45.323Z,32.72
2019-05-26T19:56:13.997Z,33.29
2019-05-26T19:58:42.742Z,33.54
2019-05-26T20:01:11.362Z,33.95
2019-05-26T20:03:39.949Z,33.91
2019-05-26T20:06:08.538Z,33.88
2019-05-26T20:08:37.078Z,33.92
2019-05-26T20:11:05.643Z,33.98
2019-05-26T20:13:34.425Z,33.73
2019-05-26T20:16:02.953Z,33.96
2019-05-26T20:18:31.512Z,33.96
2019-05-26T20:21:00.359Z,33.92
2019-05-26T20:23:29.144Z,33.99
2019-05-26T20:25:57.640Z,33.90
2019-05-26T20:28:26.181Z,34.07
2019-05-26T20:30:54.672Z,34.25
2019-05-26T20:33:23.229Z,34.57
2019-05-26T20:35:52.078Z,34.46
2019-05-26T20:38:20.954Z,34.60
2019-05-26T20:40:49.480Z,34.76
2019-05-26T20:43:18.331Z,35.01
2019-05-26T20:45:46.855Z,34.79
2019-05-26T20:48:15.363Z,34.90
2019-05-26T20:50:43.926Z,34.80
2019-05-26T20:53:12.803Z,34.68
2019-05-26T20:55:41.308Z,35.03
2019-05-26T20:58:10.097Z,35.43
2019-05-26T21:00:38.580Z,35.31
2019-05-26T21:03:07.071Z,35.03
2019-05-26T21:05:35.576Z,35.03
2019-05-26T21:08:04.056Z,35.11
2019-05-26T21:10:32.560Z,35.27
2019-05-26T21:13:01.060Z,36.06
2019-05-26T21:15:29.569Z,35.92
2019-05-26T21:17:58.149Z,35.85
2019-05-26T21:20:26.652Z,35.80
2019-05-26T21:22:55.895Z,35.91
2019-05-26T21:25:24.524Z,36.11
2019-05-26T21:27:53.014Z,36.26
2019-05-26T21:30:21.520Z,36.22
2019-05-26T21:32:50.034Z,36.10
2019-05-26T21:35:18.864Z,36.28
2019-05-26T21:37:47.386Z,36.78
2019-05-26T21:40:15.889Z,36.81
2019-05-26T21:42:44.380Z,36.74
2019-05-26T21:45:12.877Z,36.57
2019-05-26T21:47:41.370Z,36.67
2019-05-26T21:50:09.871Z,36.50
2019-05-26T21:52:38.347Z,36.63
2019-05-26T21:55:06.834Z,37.69
2019-05-26T21:57:35.324Z,38.71
2019-05-26T22:00:04.524Z,39.21
2019-05-26T22:02:33.010Z,39.86
2019-05-26T22:05:01.509Z,40.09
2019-05-26T22:07:30.291Z,41.34
2019-05-26T22:09:58.804Z,41.10
2019-05-26T22:12:27.360Z,40.66
2019-05-26T22:14:55.969Z,42.09
2019-05-26T22:17:24.450Z,41.64
2019-05-26T22:19:52.932Z,42.37
2019-05-26T22:22:21.701Z,41.42
2019-05-26T22:24:50.166Z,41.33
2019-05-26T22:27:18.833Z,41.60
2019-05-26T22:29:47.367Z,41.54
2019-05-26T22:32:16.281Z,41.21
2019-05-26T22:34:44.775Z,41.15
2019-05-26T22:37:13.270Z,41.64
2019-05-26T22:39:41.761Z,41.46
2019-05-26T22:42:10.593Z,41.36
2019-05-26T22:44:39.069Z,41.48
2019-05-26T22:47:07.559Z,41.64
2019-05-26T22:49:36.043Z,41.65
2019-05-26T22:52:04.534Z,41.90
2019-05-26T22:54:33.265Z,41.75
2019-05-26T22:57:01.752Z,41.63
2019-05-26T22:59:30.260Z,41.75
2019-05-26T23:01:58.740Z,41.98
2019-05-26T23:04:27.229Z,42.46
2019-05-26T23:06:55.717Z,42.52
2019-05-26T23:09:24.209Z,42.79
2019-05-26T23:11:52.711Z,42.79
2019-05-26T23:14:21.234Z,43.13
2019-05-26T23:16:49.764Z,43.19
2019-05-26T23:19:20.023Z,43.46
2019-05-26T23:21:48.472Z,43.25
2019-05-26T23:24:17.281Z,42.59
2019-05-26T23:26:45.783Z,42.54
2019-05-26T23:29:14.287Z,42.25
2019-05-26T23:31:42.776Z,42.33
2019-05-26T23:34:11.525Z,42.73
2019-05-26T23:36:40.008Z,42.78
2019-05-26T23:39:08.798Z,42.56
2019-05-26T23:41:37.323Z,42.09
2019-05-26T23:44:05.816Z,44.74
2019-05-26T23:46:34.374Z,44.81
2019-05-26T23:49:02.975Z,45.01
2019-05-26T23:51:31.458Z,45.04
2019-05-26T23:53:59.947Z,45.27
2019-05-26T23:56:28.682Z,45.17
2019-05-26T23:58:57.203Z,44.93
